Time;durP1;ratioP1;P1;durP2;ratioP2;P2;SDS_P1;SDS_P2;PMS_P1;PMS_P2;Temp;Humidity;BMP_temperature;BMP_pressure;BME280_temperature;BME280_humidity;BME280_pressure;Samples;Min_cycle;Max_cycle;Signal;HPM_P1;HPM_P2
2023/12/03 08:14:24;;;;;;;22.58;12.40;;;4.60;70.60;;;;;;5092402;27;20117;-79
2023/12/03 08:16:50;;;;;;;19.55;11.30;;;4.80;74.90;;;;;;5059699;27;20120;-81
2023/12/03 08:19:16;;;;;;;19.88;11.15;;;4.90;75.30;;;;;;5056662;28;20037;-80
2023/12/03 08:21:43;;;;;;;21.98;11.40;;;4.90;75.00;;;;;;5056120;28;20029;-80
2023/12/03 08:24:08;;;;;;;18.52;11.27;;;5.00;73.50;;;;;;5056193;28;20846;-81
2023/12/03 08:26:34;;;;;;;20.33;12.05;;;5.00;72.00;;;;;;5075103;28;20034;-81
2023/12/03 08:29:00;;;;;;;18.58;12.10;;;5.10;70.40;;;;;;5059294;28;20509;-81
2023/12/03 08:31:27;;;;;;;20.35;12.60;;;5.10;69.20;;;;;;5060646;28;20036;-81
2023/12/03 08:33:53;;;;;;;21.63;12.70;;;5.10;68.00;;;;;;5040735;28;20075;-81
2023/12/03 08:36:19;;;;;;;20.13;12.55;;;5.20;67.30;;;;;;5085496;28;20084;-84
2023/12/03 08:38:46;;;;;;;19.02;12.48;;;5.20;66.30;;;;;;5069334;28;20044;-85
2023/12/03 08:41:12;;;;;;;20.92;12.88;;;5.20;65.80;;;;;;5061292;28;20920;-78
2023/12/03 08:43:38;;;;;;;20.80;12.90;;;5.20;65.20;;;;;;5064180;28;20124;-81
2023/12/03 08:46:04;;;;;;;20.10;13.02;;;5.30;64.90;;;;;;5064531;28;20145;-83
2023/12/03 08:48:30;;;;;;;21.35;12.38;;;5.20;64.30;;;;;;5064493;28;20063;-83
2023/12/03 08:50:56;;;;;;;19.88;12.90;;;5.20;64.10;;;;;;5045797;28;20760;-81
2023/12/03 08:53:22;;;;;;;21.63;13.60;;;5.30;63.70;;;;;;5053561;28;20040;-77
2023/12/03 08:55:48;;;;;;;22.65;13.38;;;5.30;63.30;;;;;;5059837;28;20064;-76
2023/12/03 08:58:14;;;;;;;20.80;13.25;;;5.30;63.00;;;;;;5052560;28;20124;-77
2023/12/03 09:00:40;;;;;;;20.63;13.80;;;5.30;62.90;;;;;;5055677;28;20072;-79
2023/12/03 09:03:06;;;;;;;18.60;11.68;;;5.30;62.90;;;;;;5065069;28;20033;-78
2023/12/03 09:05:32;;;;;;;22.80;12.45;;;5.40;65.90;;;;;;5065376;28;20024;-77
2023/12/03 09:07:58;;;;;;;19.65;12.32;;;5.40;67.50;;;;;;5065991;28;20081;-79
2023/12/03 09:10:24;;;;;;;20.23;11.48;;;5.40;66.90;;;;;;5063799;28;20029;-85
2023/12/03 09:12:50;;;;;;;18.65;11.15;;;5.40;66.00;;;;;;5061246;28;20055;-78
2023/12/03 09:15:16;;;;;;;17.70;10.80;;;5.40;65.20;;;;;;5059655;28;20029;-82
2023/12/03 09:17:42;;;;;;;23.92;12.32;;;5.40;64.40;;;;;;5058697;28;20031;-77
2023/12/03 09:20:08;;;;;;;19.67;11.45;;;5.40;63.70;;;;;;5056112;28;20503;-81
2023/12/03 09:22:34;;;;;;;22.00;12.57;;;5.40;63.30;;;;;;5058654;28;20032;-81
2023/12/03 09:25:00;;;;;;;18.33;11.75;;;5.40;62.90;;;;;;5049024;28;20029;-81
2023/12/03 09:27:26;;;;;;;18.75;11.38;;;5.40;62.70;;;;;;5046299;28;20039;-78
2023/12/03 09:29:53;;;;;;;15.55;10.68;;;5.40;62.30;;;;;;5044727;28;20088;-76
2023/12/03 09:32:19;;;;;;;16.65;10.63;;;5.40;62.20;;;;;;5047043;28;20033;-84
2023/12/03 09:34:45;;;;;;;15.68;10.85;;;5.40;62.10;;;;;;5041369;28;20277;-79
2023/12/03 09:37:12;;;;;;;17.67;10.68;;;5.30;61.80;;;;;;5043500;28;20029;-75
2023/12/03 09:39:39;;;;;;;15.75;10.52;;;5.30;61.80;;;;;;5045020;28;20033;-79
2023/12/03 09:42:07;;;;;;;17.08;11.45;;;5.40;61.60;;;;;;5041254;28;20529;-79
2023/12/03 09:45:00;;;;;;;16.30;10.45;;;5.40;61.60;;;;;;5030075;28;20029;-78
2023/12/03 09:47:27;;;;;;;17.88;10.73;;;5.30;61.40;;;;;;5026165;28;20036;-77
2023/12/03 09:49:57;;;;;;;18.00;10.60;;;5.30;61.20;;;;;;5024882;28;20044;-76
2023/12/03 09:52:26;;;;;;;16.25;9.73;;;5.30;61.10;;;;;;5066098;28;20064;-76
2023/12/03 09:54:58;;;;;;;15.85;8.98;;;5.30;61.10;;;;;;5043233;28;21339;-75
2023/12/03 09:57:29;;;;;;;16.80;9.80;;;5.30;60.90;;;;;;5040321;28;20044;-74
2023/12/03 10:00:01;;;;;;;16.48;10.18;;;5.30;60.80;;;;;;5057911;28;20041;-78
2023/12/03 10:02:29;;;;;;;13.80;9.38;;;5.30;60.70;;;;;;5059094;28;20534;-81
2023/12/03 10:04:58;;;;;;;14.00;8.90;;;5.30;62.00;;;;;;5042749;28;20067;-76
2023/12/03 10:07:28;;;;;;;16.80;9.20;;;5.40;65.30;;;;;;5044846;28;20044;-83
2023/12/03 10:09:58;;;;;;;14.38;8.65;;;5.40;65.20;;;;;;5042743;28;20438;-83
2023/12/03 10:12:43;;;;;;;13.80;8.93;;;5.40;64.60;;;;;;5044422;28;20492;-78
2023/12/03 10:15:11;;;;;;;13.88;8.57;;;5.40;63.70;;;;;;5042308;28;20033;-78
2023/12/03 10:17:40;;;;;;;16.95;9.60;;;5.40;63.20;;;;;;5043121;28;20028;-76
2023/12/03 10:20:28;;;;;;;14.57;9.35;;;5.40;62.70;;;;;;5044687;28;20523;-76
2023/12/03 10:23:00;;;;;;;13.77;8.43;;;5.40;62.40;;;;;;5058238;28;20039;-77
2023/12/03 10:25:34;;;;;;;12.57;8.07;;;5.40;62.00;;;;;;5040989;28;20289;-78
2023/12/03 10:28:03;;;;;;;12.60;8.02;;;5.40;61.90;;;;;;5039511;28;20059;-78
2023/12/03 10:30:30;;;;;;;15.25;9.02;;;5.40;61.50;;;;;;5050425;28;20494;-77
2023/12/03 10:32:56;;;;;;;11.88;7.65;;;5.30;61.40;;;;;;5025295;28;20143;-79
2023/12/03 10:35:23;;;;;;;14.00;8.70;;;5.30;61.30;;;;;;5043284;28;20061;-79
2023/12/03 10:37:50;;;;;;;13.13;8.25;;;5.30;61.00;;;;;;5042240;28;20090;-78
2023/12/03 10:40:20;;;;;;;14.10;8.80;;;5.40;60.90;;;;;;5042371;28;20124;-80
2023/12/03 10:42:47;;;;;;;12.18;8.32;;;5.30;60.70;;;;;;5043074;28;20029;-78
2023/12/03 10:45:15;;;;;;;15.18;8.93;;;5.40;60.80;;;;;;5054828;28;20044;-80
2023/12/03 10:47:42;;;;;;;15.00;8.50;;;5.40;60.70;;;;;;5040574;28;20033;-78
2023/12/03 10:50:10;;;;;;;14.13;8.43;;;5.40;60.60;;;;;;5042883;28;20032;-77
2023/12/03 10:52:38;;;;;;;15.05;9.23;;;5.40;60.50;;;;;;5042713;28;20411;-77
2023/12/03 10:55:09;;;;;;;17.00;9.60;;;5.40;60.50;;;;;;5042808;28;20052;-78
2023/12/03 10:57:55;;;;;;;14.43;8.07;;;5.40;60.40;;;;;;5041981;28;20065;-78
2023/12/03 11:00:24;;;;;;;14.20;9.02;;;5.40;60.20;;;;;;5041345;28;20033;-78
2023/12/03 11:03:07;;;;;;;14.57;8.88;;;5.40;60.10;;;;;;5042769;28;20044;-79
2023/12/03 11:05:48;;;;;;;14.73;8.48;;;5.40;60.00;;;;;;5040817;28;20021;-77
2023/12/03 11:08:15;;;;;;;15.00;9.18;;;5.40;59.90;;;;;;5024631;28;20044;-78
2023/12/03 11:10:41;;;;;;;14.90;9.07;;;5.30;59.90;;;;;;5039972;28;20044;-77
2023/12/03 11:13:09;;;;;;;16.13;9.10;;;5.30;59.80;;;;;;5040412;28;20140;-78
2023/12/03 11:15:36;;;;;;;15.30;9.30;;;5.40;59.80;;;;;;5032652;28;20033;-77
2023/12/03 11:18:04;;;;;;;14.07;8.35;;;5.30;59.70;;;;;;5042802;28;20423;-77
2023/12/03 11:20:34;;;;;;;13.05;8.18;;;5.30;60.60;;;;;;5040264;28;20040;-77
2023/12/03 11:23:13;;;;;;;15.52;8.20;;;5.40;64.50;;;;;;5053503;28;20040;-76
2023/12/03 11:26:07;;;;;;;12.63;7.88;;;5.40;68.10;;;;;;5042404;28;20166;-77
2023/12/03 11:28:34;;;;;;;11.90;7.20;;;5.50;70.80;;;;;;5039073;28;20124;-80
2023/12/03 11:31:00;;;;;;;10.43;6.78;;;5.50;73.10;;;;;;5058239;28;20126;-80
2023/12/03 11:33:27;;;;;;;11.02;6.70;;;5.60;74.60;;;;;;5043590;28;20037;-81
2023/12/03 11:35:53;;;;;;;11.95;6.78;;;5.60;75.50;;;;;;5040631;28;20041;-85
2023/12/03 11:38:22;;;;;;;15.40;7.05;;;5.60;76.40;;;;;;5058517;28;20032;-82
2023/12/03 11:40:49;;;;;;;13.80;7.65;;;5.70;77.80;;;;;;5045485;28;20036;-83
2023/12/03 11:43:23;;;;;;;11.65;6.38;;;5.70;78.90;;;;;;5045868;28;20041;-86
2023/12/03 11:45:51;;;;;;;11.30;6.55;;;5.80;79.40;;;;;;5045898;28;20059;-80
2023/12/03 11:48:17;;;;;;;12.20;6.50;;;5.80;80.10;;;;;;5041725;28;20037;-81
2023/12/03 11:50:46;;;;;;;12.02;6.65;;;5.90;80.20;;;;;;5040246;28;20110;-80
2023/12/03 11:53:15;;;;;;;10.13;6.40;;;5.90;80.00;;;;;;5042197;28;20120;-79
2023/12/03 11:55:45;;;;;;;13.38;7.28;;;5.90;80.10;;;;;;5041715;28;20033;-83
2023/12/03 11:58:11;;;;;;;9.60;6.50;;;5.90;80.50;;;;;;5042885;28;20029;-82
2023/12/03 12:00:38;;;;;;;11.52;6.20;;;6.00;80.40;;;;;;5040796;28;20087;-81
2023/12/03 12:03:06;;;;;;;11.07;6.50;;;6.00;80.10;;;;;;5037997;28;20061;-84
2023/12/03 12:05:34;;;;;;;8.43;6.22;;;6.00;80.30;;;;;;5040573;28;20119;-84
2023/12/03 12:08:04;;;;;;;10.48;5.88;;;6.10;79.90;;;;;;5041275;28;20044;-81
2023/12/03 12:10:32;;;;;;;10.15;6.05;;;6.10;79.80;;;;;;5040328;28;20061;-80
2023/12/03 12:13:04;;;;;;;11.82;6.20;;;6.10;79.90;;;;;;5037205;28;20531;-81
2023/12/03 12:15:30;;;;;;;8.68;5.47;;;6.20;79.60;;;;;;5044300;28;20045;-85
2023/12/03 12:17:56;;;;;;;10.90;6.18;;;6.20;79.50;;;;;;5045044;28;20047;-77
2023/12/03 12:20:23;;;;;;;9.55;5.47;;;6.20;79.40;;;;;;5043162;28;20074;-82
2023/12/03 12:22:51;;;;;;;10.32;5.75;;;6.20;79.50;;;;;;5042881;28;20083;-80
2023/12/03 12:25:18;;;;;;;7.85;5.38;;;6.30;79.70;;;;;;5040093;28;20041;-78
2023/12/03 12:27:45;;;;;;;8.82;5.25;;;6.30;79.30;;;;;;5042329;28;20069;-77
2023/12/03 12:30:16;;;;;;;10.13;5.50;;;6.30;79.30;;;;;;5049982;28;20057;-82
2023/12/03 12:32:42;;;;;;;7.80;5.05;;;6.40;79.20;;;;;;5053462;28;20033;-81
2023/12/03 12:35:12;;;;;;;8.90;5.05;;;6.40;79.20;;;;;;5043836;28;20031;-80
2023/12/03 12:37:38;;;;;;;7.75;4.70;;;6.40;79.00;;;;;;5042091;28;20411;-82
2023/12/03 12:40:11;;;;;;;7.18;5.43;;;6.40;79.10;;;;;;5041069;28;20470;-82
2023/12/03 12:42:42;;;;;;;11.35;5.28;;;6.50;78.80;;;;;;5055759;28;20079;-82
2023/12/03 12:45:28;;;;;;;6.85;4.78;;;6.50;78.80;;;;;;5025573;28;20036;-81
2023/12/03 12:47:54;;;;;;;7.35;4.75;;;6.50;78.70;;;;;;5041566;28;20044;-81
2023/12/03 12:50:38;;;;;;;11.75;4.95;;;6.50;79.10;;;;;;5059380;28;20040;-85
2023/12/03 12:53:06;;;;;;;8.77;5.35;;;6.50;78.90;;;;;;5043160;28;20183;-80
2023/12/03 12:55:33;;;;;;;5.53;4.10;;;6.50;79.10;;;;;;5042324;28;20041;-78
2023/12/03 12:58:00;;;;;;;8.18;5.15;;;6.60;79.70;;;;;;5041488;28;20029;-82
2023/12/03 13:00:26;;;;;;;6.35;4.35;;;6.60;78.80;;;;;;5044556;28;20063;-82
2023/12/03 13:02:53;;;;;;;9.95;5.18;;;6.60;78.80;;;;;;5046052;28;20859;-82
2023/12/03 13:05:21;;;;;;;7.45;4.35;;;6.60;78.80;;;;;;5047586;28;20021;-82
2023/12/03 13:07:48;;;;;;;6.32;4.00;;;6.60;78.70;;;;;;5046291;28;20375;-81
2023/12/03 13:10:14;;;;;;;7.05;3.67;;;6.60;78.80;;;;;;5046311;28;20096;-84
2023/12/03 13:12:40;;;;;;;7.35;4.85;;;6.60;78.70;;;;;;5042033;28;20044;-79
2023/12/03 13:15:08;;;;;;;5.45;3.78;;;6.70;78.60;;;;;;5042796;28;20492;-83
2023/12/03 13:17:59;;;;;;;5.75;3.80;;;6.60;78.40;;;;;;5044999;28;20025;-82
2023/12/03 13:20:25;;;;;;;7.40;3.88;;;6.70;78.30;;;;;;5046817;28;20035;-86
2023/12/03 13:22:51;;;;;;;8.07;3.95;;;6.70;78.10;;;;;;5044286;28;20501;-82
2023/12/03 13:25:20;;;;;;;4.28;3.22;;;6.70;78.00;;;;;;5046958;28;20033;-83
2023/12/03 13:27:46;;;;;;;6.93;4.05;;;6.70;77.90;;;;;;5045268;28;20116;-81
2023/12/03 13:30:12;;;;;;;6.35;3.58;;;6.70;78.20;;;;;;5048574;28;20656;-82
2023/12/03 13:32:40;;;;;;;5.82;3.95;;;6.70;78.50;;;;;;5043310;28;20056;-79
2023/12/03 13:35:14;;;;;;;5.03;3.58;;;6.70;78.50;;;;;;5044401;28;20413;-79
2023/12/03 13:37:40;;;;;;;6.65;4.03;;;6.70;78.70;;;;;;5061255;28;20097;-78
2023/12/03 13:40:07;;;;;;;5.97;4.03;;;6.70;78.80;;;;;;5046155;28;20526;-78
2023/12/03 13:42:34;;;;;;;5.30;3.55;;;6.80;78.80;;;;;;5061654;28;20048;-78
2023/12/03 13:45:02;;;;;;;5.80;3.20;;;6.80;78.70;;;;;;5045825;28;20091;-79
2023/12/03 13:47:29;;;;;;;4.32;3.30;;;6.80;78.80;;;;;;5044285;28;20032;-78
2023/12/03 13:49:55;;;;;;;5.15;3.05;;;6.80;78.80;;;;;;5045180;28;20025;-77
2023/12/03 13:52:21;;;;;;;4.47;3.30;;;6.80;78.90;;;;;;5043610;28;20041;-76
2023/12/03 13:54:47;;;;;;;4.93;3.50;;;6.80;78.80;;;;;;5042828;28;20029;-76
2023/12/03 13:57:14;;;;;;;6.75;3.63;;;6.80;79.10;;;;;;5040142;28;20033;-77
2023/12/03 13:59:41;;;;;;;5.13;3.45;;;6.80;78.70;;;;;;5042681;28;20038;-79
2023/12/03 14:02:11;;;;;;;5.00;3.22;;;6.80;78.90;;;;;;5059320;28;20025;-78
2023/12/03 14:04:37;;;;;;;6.95;3.47;;;6.80;78.90;;;;;;5043506;28;20079;-81
2023/12/03 14:07:05;;;;;;;3.05;2.72;;;6.80;78.50;;;;;;5029667;28;20110;-78
2023/12/03 14:09:31;;;;;;;3.45;2.95;;;6.80;78.40;;;;;;5044026;28;20062;-80
2023/12/03 14:11:57;;;;;;;5.03;3.20;;;6.80;78.30;;;;;;5044132;28;20637;-77
2023/12/03 14:14:23;;;;;;;4.15;2.75;;;6.80;78.20;;;;;;5045425;28;20036;-78
2023/12/03 14:17:00;;;;;;;6.32;3.28;;;6.80;78.00;;;;;;5040810;28;20948;-76
2023/12/03 14:19:26;;;;;;;5.00;3.00;;;6.90;78.10;;;;;;5042404;28;20052;-78
2023/12/03 14:21:53;;;;;;;6.47;3.25;;;6.80;77.80;;;;;;5042384;28;20038;-78
2023/12/03 14:24:19;;;;;;;4.25;3.40;;;6.90;77.60;;;;;;5043954;28;20419;-79
2023/12/03 14:26:45;;;;;;;4.90;3.15;;;6.90;77.40;;;;;;5050048;28;20044;-79
2023/12/03 14:29:15;;;;;;;3.70;2.97;;;6.90;77.40;;;;;;5025581;28;20029;-78
2023/12/03 14:31:41;;;;;;;3.38;2.60;;;6.90;77.50;;;;;;5042020;28;20029;-79
2023/12/03 14:34:08;;;;;;;4.20;3.17;;;6.80;77.30;;;;;;5040599;28;20063;-79
2023/12/03 14:36:34;;;;;;;7.18;3.40;;;6.80;77.40;;;;;;5056636;28;20037;-79
2023/12/03 14:39:00;;;;;;;5.35;2.90;;;6.80;77.30;;;;;;5043463;28;20040;-78
2023/12/03 14:41:26;;;;;;;3.45;3.05;;;6.80;77.20;;;;;;5027841;28;20033;-79
2023/12/03 14:43:52;;;;;;;4.18;2.92;;;6.90;77.20;;;;;;5041927;28;20032;-78
2023/12/03 14:46:19;;;;;;;4.45;2.88;;;6.90;77.10;;;;;;5043137;28;20514;-78
2023/12/03 14:48:45;;;;;;;3.42;2.75;;;6.90;77.20;;;;;;5043307;28;20052;-78
2023/12/03 14:51:24;;;;;;;4.10;3.30;;;6.90;77.10;;;;;;5027250;28;20485;-78
2023/12/03 14:53:50;;;;;;;3.55;2.60;;;6.80;77.40;;;;;;5043939;28;20049;-78
2023/12/03 14:56:27;;;;;;;3.92;3.03;;;6.90;77.20;;;;;;5043855;28;20044;-80
2023/12/03 14:58:57;;;;;;;3.08;2.67;;;6.90;77.20;;;;;;5043801;28;20044;-77
2023/12/03 15:01:31;;;;;;;4.03;2.97;;;6.90;77.10;;;;;;5039865;28;20038;-79
2023/12/03 15:03:57;;;;;;;5.18;2.92;;;6.90;77.00;;;;;;5053250;28;20037;-79
2023/12/03 15:06:24;;;;;;;4.10;2.63;;;6.90;76.90;;;;;;5051649;28;20167;-79
2023/12/03 15:08:51;;;;;;;3.63;2.97;;;6.90;77.00;;;;;;5044967;28;20458;-77
2023/12/03 15:11:17;;;;;;;8.18;3.28;;;6.90;76.90;;;;;;5045511;28;20032;-79
2023/12/03 15:13:47;;;;;;;4.93;2.90;;;6.90;77.10;;;;;;5043761;28;20049;-79
2023/12/03 15:16:14;;;;;;;4.35;2.78;;;6.90;76.80;;;;;;5028940;28;20635;-86
2023/12/03 15:18:42;;;;;;;4.88;3.22;;;6.90;76.70;;;;;;5044585;28;20479;-81
2023/12/03 15:21:09;;;;;;;5.53;3.17;;;6.90;76.50;;;;;;5043859;28;20055;-76
2023/12/03 15:23:39;;;;;;;5.47;3.17;;;6.90;76.90;;;;;;5043113;28;20028;-85
2023/12/03 15:26:06;;;;;;;4.35;3.47;;;7.00;82.70;;;;;;5043803;28;20064;-79
2023/12/03 15:28:32;;;;;;;3.33;2.60;;;7.10;81.80;;;;;;5044964;28;20103;-88
2023/12/03 15:30:58;;;;;;;5.75;2.47;;;7.30;80.30;;;;;;5050049;28;20044;-89
2023/12/03 15:33:24;;;;;;;5.30;3.05;;;7.30;80.00;;;;;;5048134;28;20507;-89
2023/12/03 15:35:51;;;;;;;4.45;3.40;;;7.30;79.40;;;;;;5048334;28;20036;-87
2023/12/03 15:38:17;;;;;;;4.82;3.30;;;7.30;78.30;;;;;;5048042;28;20029;-87
2023/12/03 15:40:44;;;;;;;4.70;3.42;;;7.30;77.30;;;;;;5052380;28;20048;-87
2023/12/03 15:43:11;;;;;;;8.68;3.40;;;7.30;76.80;;;;;;5048071;28;20025;-87
2023/12/03 15:45:40;;;;;;;4.45;3.05;;;7.30;76.20;;;;;;5066331;28;20044;-87
2023/12/03 15:48:12;;;;;;;4.13;3.22;;;7.30;75.60;;;;;;5027826;28;20420;-92
2023/12/03 15:50:39;;;;;;;4.55;3.30;;;7.30;75.50;;;;;;5056097;28;20033;-82
2023/12/03 15:53:05;;;;;;;3.83;2.92;;;7.30;75.50;;;;;;5081259;28;20878;-90
2023/12/03 15:55:32;;;;;;;4.45;3.30;;;7.30;75.50;;;;;;5047695;28;20039;-88
2023/12/03 15:57:57;;;;;;;8.27;3.25;;;7.30;75.30;;;;;;5047184;28;20036;-86
2023/12/03 16:00:24;;;;;;;5.18;3.20;;;7.30;75.20;;;;;;5044713;28;20338;-81
2023/12/03 16:02:51;;;;;;;4.18;3.08;;;7.30;75.00;;;;;;5011646;28;20475;-82
2023/12/03 16:05:17;;;;;;;6.50;2.85;;;7.30;75.20;;;;;;5042138;28;20025;-86
2023/12/03 16:07:45;;;;;;;4.15;2.88;;;7.30;75.30;;;;;;5043613;28;20144;-81
2023/12/03 16:10:16;;;;;;;4.07;3.00;;;7.30;75.40;;;;;;5041378;28;20072;-80
2023/12/03 16:12:43;;;;;;;5.55;3.10;;;7.30;75.00;;;;;;5066710;28;20061;-84
2023/12/03 16:15:09;;;;;;;6.72;3.17;;;7.30;75.10;;;;;;5019784;28;20033;-81
2023/12/03 16:17:37;;;;;;;4.35;3.10;;;7.30;74.70;;;;;;5053952;28;20036;-92
2023/12/03 16:20:03;;;;;;;7.88;3.47;;;7.30;74.00;;;;;;5040561;28;20480;-80
2023/12/03 16:22:30;;;;;;;4.88;3.47;;;7.30;73.70;;;;;;5066006;28;20102;-79
2023/12/03 16:24:56;;;;;;;4.90;2.72;;;7.30;73.40;;;;;;5056491;28;20187;-83
2023/12/03 16:27:22;;;;;;;4.88;3.10;;;7.30;73.40;;;;;;5054912;28;20041;-78
2023/12/03 16:29:48;;;;;;;4.75;3.60;;;7.30;73.30;;;;;;5051302;28;20110;-79
2023/12/03 16:32:14;;;;;;;6.82;3.58;;;7.30;73.00;;;;;;5075248;28;20321;-79
2023/12/03 16:34:42;;;;;;;6.22;3.35;;;7.30;72.80;;;;;;5051345;28;20108;-82
2023/12/03 16:37:08;;;;;;;3.70;2.95;;;7.30;72.70;;;;;;5087758;28;20037;-84
2023/12/03 16:39:36;;;;;;;5.63;3.28;;;7.30;72.70;;;;;;5042860;28;20395;-84
2023/12/03 16:42:02;;;;;;;5.70;3.08;;;7.30;72.60;;;;;;5062326;28;20164;-83
2023/12/03 16:44:28;;;;;;;5.72;3.53;;;7.30;72.90;;;;;;5055598;28;20029;-84
2023/12/03 16:46:54;;;;;;;5.72;3.30;;;7.30;73.80;;;;;;5053467;28;20033;-82
2023/12/03 16:49:21;;;;;;;8.20;4.35;;;7.30;75.90;;;;;;5051466;28;20105;-86
2023/12/03 16:51:47;;;;;;;7.07;3.40;;;7.30;76.30;;;;;;5052420;28;20029;-88
2023/12/03 16:54:14;;;;;;;7.05;4.32;;;7.30;77.10;;;;;;5052390;28;20049;-82
2023/12/03 16:56:40;;;;;;;8.02;3.40;;;7.30;77.60;;;;;;5052214;28;20616;-88
2023/12/03 16:59:07;;;;;;;7.47;3.97;;;7.30;77.90;;;;;;5053137;28;20919;-88
2023/12/03 17:01:33;;;;;;;8.32;3.55;;;7.30;78.00;;;;;;5052463;28;20488;-84
2023/12/03 17:03:59;;;;;;;7.55;3.15;;;7.40;78.50;;;;;;5053009;28;20067;-85
2023/12/03 17:06:25;;;;;;;6.53;3.60;;;7.40;78.10;;;;;;5050996;28;20045;-86
2023/12/03 17:08:52;;;;;;;5.72;3.50;;;7.40;78.50;;;;;;5053039;28;20059;-87
2023/12/03 17:11:18;;;;;;;7.90;3.40;;;7.40;78.50;;;;;;5049892;28;20521;-87
2023/12/03 17:13:44;;;;;;;6.57;3.42;;;7.40;78.30;;;;;;5044887;28;20176;-93
2023/12/03 17:16:11;;;;;;;8.88;3.50;;;7.40;78.20;;;;;;5049198;28;20515;-91
2023/12/03 17:18:37;;;;;;;6.97;3.90;;;7.40;77.90;;;;;;5056115;28;20145;-83
2023/12/03 17:21:04;;;;;;;5.78;3.72;;;7.30;77.90;;;;;;5057795;28;20118;-84
2023/12/03 17:23:30;;;;;;;5.63;3.40;;;7.40;77.80;;;;;;5058845;28;20037;-86
2023/12/03 17:25:56;;;;;;;7.10;4.00;;;7.30;77.60;;;;;;5036817;28;20149;-86
2023/12/03 17:28:22;;;;;;;5.97;3.70;;;7.40;77.20;;;;;;5049708;28;20567;-83
2023/12/03 17:30:48;;;;;;;5.32;3.55;;;7.40;77.40;;;;;;5049577;28;20043;-85
2023/12/03 17:33:16;;;;;;;5.28;3.30;;;7.30;77.30;;;;;;5063457;28;20143;-82
2023/12/03 17:35:42;;;;;;;5.63;3.85;;;7.30;77.60;;;;;;5049266;28;20037;-90
2023/12/03 17:38:08;;;;;;;6.32;3.92;;;7.40;78.10;;;;;;5065761;28;20808;-91
2023/12/03 17:40:34;;;;;;;4.35;3.13;;;7.30;77.80;;;;;;5050294;28;20037;-85
2023/12/03 17:43:01;;;;;;;6.28;4.20;;;7.30;78.00;;;;;;5010644;28;20045;-85
2023/12/03 17:45:27;;;;;;;9.00;3.78;;;7.30;78.20;;;;;;5043032;28;20411;-84
2023/12/03 17:47:53;;;;;;;5.05;3.67;;;7.30;78.30;;;;;;5046213;28;20090;-91
2023/12/03 17:50:20;;;;;;;5.72;4.03;;;7.30;78.60;;;;;;5050488;28;20036;-89
2023/12/03 17:52:46;;;;;;;6.15;3.72;;;7.30;78.70;;;;;;5058579;28;20037;-84
2023/12/03 17:55:12;;;;;;;7.55;4.15;;;7.30;79.00;;;;;;5050371;28;20048;-85
2023/12/03 17:57:39;;;;;;;6.68;3.80;;;7.30;79.70;;;;;;5046797;28;20036;-79
2023/12/03 18:00:06;;;;;;;5.35;3.90;;;7.30;79.70;;;;;;5043520;28;20037;-93
2023/12/03 18:02:40;;;;;;;5.38;3.72;;;7.30;79.30;;;;;;5046773;28;20478;-81
2023/12/03 18:05:06;;;;;;;5.30;3.25;;;7.30;79.20;;;;;;5044563;28;20048;-81
2023/12/03 18:07:32;;;;;;;5.75;3.80;;;7.30;79.30;;;;;;5045576;28;20033;-86
2023/12/03 18:09:59;;;;;;;5.40;4.00;;;7.30;79.00;;;;;;5052947;28;20166;-87
2023/12/03 18:12:27;;;;;;;6.90;4.05;;;7.30;79.10;;;;;;5045365;28;20621;-81
2023/12/03 18:14:56;;;;;;;5.15;3.53;;;7.30;78.90;;;;;;5044919;28;20125;-82
2023/12/03 18:17:24;;;;;;;5.07;3.47;;;7.30;78.50;;;;;;5069902;28;20028;-81
2023/12/03 18:19:50;;;;;;;7.82;3.45;;;7.30;79.10;;;;;;5044649;28;20033;-82
2023/12/03 18:22:16;;;;;;;5.47;3.72;;;7.30;78.50;;;;;;5042382;28;20034;-82
2023/12/03 18:24:45;;;;;;;5.32;3.53;;;7.30;78.60;;;;;;5044489;28;20078;-78
2023/12/03 18:27:12;;;;;;;4.47;3.30;;;7.30;78.30;;;;;;5044949;28;20061;-78
2023/12/03 18:29:38;;;;;;;3.90;3.15;;;7.40;78.50;;;;;;5044104;28;20033;-78
2023/12/03 18:32:05;;;;;;;5.55;3.40;;;7.30;78.10;;;;;;5041720;28;20039;-79
2023/12/03 18:34:31;;;;;;;7.53;3.65;;;7.30;77.90;;;;;;5043932;28;20079;-78
2023/12/03 18:36:59;;;;;;;5.93;3.70;;;7.30;77.90;;;;;;5043114;28;20064;-79
2023/12/03 18:39:25;;;;;;;6.75;3.72;;;7.30;78.00;;;;;;5043236;28;20153;-83
2023/12/03 18:41:51;;;;;;;5.35;3.38;;;7.30;78.10;;;;;;5042358;28;21512;-81
2023/12/03 18:44:20;;;;;;;4.43;3.50;;;7.30;77.90;;;;;;5044485;28;20027;-80
2023/12/03 18:46:49;;;;;;;4.97;3.38;;;7.30;78.30;;;;;;5046814;28;20067;-83
2023/12/03 18:49:17;;;;;;;4.43;3.25;;;7.30;77.80;;;;;;5044924;28;20029;-85
2023/12/03 18:51:43;;;;;;;5.68;3.08;;;7.30;77.80;;;;;;5044029;28;20037;-80
2023/12/03 18:54:09;;;;;;;5.88;3.63;;;7.30;77.30;;;;;;5043655;28;20281;-79
2023/12/03 18:56:35;;;;;;;4.85;3.40;;;7.30;77.20;;;;;;5072063;23;20032;-78
2023/12/03 18:59:02;;;;;;;5.45;3.33;;;7.30;77.60;;;;;;5023713;28;20052;-79
2023/12/03 19:01:28;;;;;;;6.72;3.33;;;7.30;77.30;;;;;;5043605;28;20034;-81
2023/12/03 19:03:54;;;;;;;4.25;3.08;;;7.30;76.80;;;;;;5025395;28;20671;-81
2023/12/03 19:06:23;;;;;;;5.60;3.60;;;7.30;76.80;;;;;;5038491;28;20037;-81
2023/12/03 19:08:48;;;;;;;5.18;3.42;;;7.30;76.80;;;;;;5026543;28;20419;-84
2023/12/03 19:11:15;;;;;;;6.70;3.40;;;7.30;76.80;;;;;;5004717;28;20025;-83
2023/12/03 19:13:41;;;;;;;7.88;3.15;;;7.30;76.50;;;;;;5036277;28;20045;-84
2023/12/03 19:16:07;;;;;;;4.40;3.13;;;7.30;76.60;;;;;;5029066;28;20038;-83
2023/12/03 19:18:36;;;;;;;7.55;3.17;;;7.30;76.90;;;;;;5025757;28;20529;-82
2023/12/03 19:21:02;;;;;;;5.45;3.28;;;7.30;77.50;;;;;;5027501;28;20038;-84
2023/12/03 19:23:46;;;;;;;5.10;3.45;;;7.30;77.70;;;;;;5032226;28;20063;-84
2023/12/03 19:26:13;;;;;;;5.18;3.33;;;7.30;77.90;;;;;;5038569;28;20045;-88
2023/12/03 19:28:39;;;;;;;9.75;3.78;;;7.30;78.40;;;;;;5045043;28;20067;-84
2023/12/03 19:31:05;;;;;;;6.18;3.40;;;7.30;78.90;;;;;;5043287;28;20045;-85
2023/12/03 19:33:34;;;;;;;9.00;3.72;;;7.30;80.00;;;;;;5028059;28;20074;-84
2023/12/03 19:36:03;;;;;;;7.28;3.40;;;7.30;82.80;;;;;;5058255;28;20063;-83
2023/12/03 19:38:29;;;;;;;7.50;3.67;;;7.30;83.90;;;;;;5032776;28;20366;-83
2023/12/03 19:41:00;;;;;;;6.95;3.75;;;7.30;84.20;;;;;;5041226;28;20091;-80
2023/12/03 19:43:29;;;;;;;6.95;3.83;;;7.30;84.80;;;;;;5032803;28;20038;-83
2023/12/03 19:45:56;;;;;;;7.15;3.60;;;7.30;85.10;;;;;;5050662;28;20044;-83
2023/12/03 19:48:24;;;;;;;9.45;4.07;;;7.30;85.70;;;;;;5055715;28;20167;-83
2023/12/03 19:50:50;;;;;;;5.78;3.63;;;7.40;86.20;;;;;;5038634;28;20036;-79
2023/12/03 19:53:16;;;;;;;7.00;3.70;;;7.30;86.20;;;;;;5043579;28;20419;-82
2023/12/03 19:55:42;;;;;;;8.38;3.80;;;7.30;85.70;;;;;;5032189;28;20522;-80
2023/12/03 19:58:08;;;;;;;5.07;3.75;;;7.40;85.20;;;;;;5029743;28;20049;-80
2023/12/03 20:00:34;;;;;;;6.30;3.33;;;7.30;85.00;;;;;;5014643;28;20060;-80
2023/12/03 20:03:00;;;;;;;5.15;3.70;;;7.30;85.50;;;;;;5023259;28;20033;-79
2023/12/03 20:05:26;;;;;;;7.95;3.85;;;7.40;85.30;;;;;;5039319;28;20087;-81
2023/12/03 20:07:52;;;;;;;5.55;3.65;;;7.40;85.60;;;;;;5023922;28;20037;-79
2023/12/03 20:10:18;;;;;;;8.32;3.83;;;7.40;85.90;;;;;;5025904;28;20507;-84
2023/12/03 20:12:44;;;;;;;5.53;3.67;;;7.40;86.50;;;;;;5034161;28;20025;-84
2023/12/03 20:15:10;;;;;;;8.55;3.60;;;7.40;86.20;;;;;;5048325;28;20034;-79
2023/12/03 20:17:36;;;;;;;6.07;3.83;;;7.40;86.50;;;;;;5035057;28;20482;-85
2023/12/03 20:20:02;;;;;;;5.95;3.60;;;7.40;86.50;;;;;;5034741;28;20025;-84
2023/12/03 20:22:28;;;;;;;7.07;3.70;;;7.40;87.20;;;;;;5015752;28;20273;-83
2023/12/03 20:24:54;;;;;;;8.15;4.15;;;7.40;87.20;;;;;;5041657;28;20068;-84
2023/12/03 20:27:20;;;;;;;8.27;4.55;;;7.40;86.80;;;;;;5024228;28;20032;-81
2023/12/03 20:29:46;;;;;;;8.60;4.55;;;7.40;86.60;;;;;;5038127;28;20379;-82
2023/12/03 20:32:12;;;;;;;7.78;5.22;;;7.40;87.00;;;;;;5051751;28;20068;-79
2023/12/03 20:34:38;;;;;;;6.18;4.35;;;7.40;87.30;;;;;;5038728;28;20200;-87
2023/12/03 20:37:07;;;;;;;7.60;4.50;;;7.40;87.70;;;;;;5037666;28;20457;-89
2023/12/03 20:39:33;;;;;;;8.13;5.25;;;7.40;87.30;;;;;;5051386;28;20053;-88
2023/12/03 20:42:00;;;;;;;7.32;4.40;;;7.40;87.00;;;;;;5044412;28;20033;-85
2023/12/03 20:44:26;;;;;;;6.53;3.90;;;7.40;86.40;;;;;;5041729;28;20458;-83
2023/12/03 20:46:52;;;;;;;6.85;4.60;;;7.40;86.50;;;;;;5026694;28;20431;-86
2023/12/03 20:49:23;;;;;;;5.55;3.70;;;7.40;86.50;;;;;;5028495;28;20064;-88
2023/12/03 20:51:49;;;;;;;5.38;3.63;;;7.40;86.60;;;;;;5016997;28;20439;-85
2023/12/03 20:54:15;;;;;;;4.30;3.35;;;7.40;86.70;;;;;;5025581;28;20086;-86
2023/12/03 20:56:41;;;;;;;6.68;3.75;;;7.50;86.80;;;;;;5045418;28;20033;-86
2023/12/03 20:59:07;;;;;;;6.85;3.80;;;7.40;86.20;;;;;;5023692;28;20041;-88
2023/12/03 21:01:33;;;;;;;7.28;4.05;;;7.40;86.80;;;;;;5024584;28;20384;-87
2023/12/03 21:03:59;;;;;;;5.93;4.00;;;7.40;87.20;;;;;;5021738;28;20044;-82
2023/12/03 21:06:27;;;;;;;6.00;3.45;;;7.50;86.80;;;;;;5005766;28;20037;-83
2023/12/03 21:08:54;;;;;;;7.60;3.80;;;7.50;88.20;;;;;;5025859;28;20053;-81